sensor_id;sensor_type;location;lat;lon;timestamp;P1;durP1;ratioP1;P2;durP2;ratioP2
7529;SDS011;3806;52.270;10.544;2023-10-19T00:01:09;10.93;;;6.75;;
7529;SDS011;3806;52.270;10.544;2023-10-19T00:03:36;9.93;;;6.40;;
7529;SDS011;3806;52.270;10.544;2023-10-19T00:06:02;8.82;;;6.07;;
7529;SDS011;3806;52.270;10.544;2023-10-19T00:08:30;9.15;;;6.63;;
7529;SDS011;3806;52.270;10.544;2023-10-19T00:13:33;11.50;;;7.32;;
7529;SDS011;3806;52.270;10.544;2023-10-19T00:16:06;11.52;;;7.22;;
7529;SDS011;3806;52.270;10.544;2023-10-19T00:18:37;11.98;;;6.93;;
7529;SDS011;3806;52.270;10.544;2023-10-19T00:21:07;9.88;;;6.80;;
7529;SDS011;3806;52.270;10.544;2023-10-19T00:23:44;11.80;;;7.72;;
7529;SDS011;3806;52.270;10.544;2023-10-19T00:26:14;10.82;;;7.68;;
7529;SDS011;3806;52.270;10.544;2023-10-19T00:28:42;10.70;;;7.18;;
7529;SDS011;3806;52.270;10.544;2023-10-19T00:31:10;12.93;;;7.20;;
7529;SDS011;3806;52.270;10.544;2023-10-19T00:33:37;10.05;;;6.30;;
7529;SDS011;3806;52.270;10.544;2023-10-19T00:38:38;10.48;;;7.38;;
7529;SDS011;3806;52.270;10.544;2023-10-19T00:41:12;10.20;;;7.20;;
7529;SDS011;3806;52.270;10.544;2023-10-19T00:43:40;11.43;;;7.35;;
7529;SDS011;3806;52.270;10.544;2023-10-19T00:46:10;12.43;;;7.75;;
7529;SDS011;3806;52.270;10.544;2023-10-19T00:48:49;12.32;;;7.53;;
7529;SDS011;3806;52.270;10.544;2023-10-19T00:51:20;14.25;;;9.65;;
7529;SDS011;3806;52.270;10.544;2023-10-19T00:53:56;13.65;;;8.60;;
7529;SDS011;3806;52.270;10.544;2023-10-19T00:56:24;16.52;;;9.43;;
7529;SDS011;3806;52.270;10.544;2023-10-19T00:58:57;15.93;;;9.40;;
7529;SDS011;3806;52.270;10.544;2023-10-19T01:01:37;15.20;;;9.50;;
7529;SDS011;3806;52.270;10.544;2023-10-19T01:04:09;17.50;;;9.60;;
7529;SDS011;3806;52.270;10.544;2023-10-19T01:06:40;15.75;;;9.88;;
7529;SDS011;3806;52.270;10.544;2023-10-19T01:09:10;18.80;;;10.27;;
7529;SDS011;3806;52.270;10.544;2023-10-19T01:11:40;16.25;;;9.18;;
7529;SDS011;3806;52.270;10.544;2023-10-19T01:14:20;22.23;;;10.27;;
7529;SDS011;3806;52.270;10.544;2023-10-19T01:16:47;20.42;;;11.23;;
7529;SDS011;3806;52.270;10.544;2023-10-19T01:19:14;17.85;;;9.18;;
7529;SDS011;3806;52.270;10.544;2023-10-19T01:21:43;16.20;;;10.10;;
7529;SDS011;3806;52.270;10.544;2023-10-19T01:24:15;16.33;;;9.75;;
7529;SDS011;3806;52.270;10.544;2023-10-19T01:26:42;20.77;;;11.90;;
7529;SDS011;3806;52.270;10.544;2023-10-19T01:29:08;18.10;;;10.23;;
7529;SDS011;3806;52.270;10.544;2023-10-19T01:31:42;21.77;;;11.30;;
7529;SDS011;3806;52.270;10.544;2023-10-19T01:34:21;18.30;;;10.73;;
7529;SDS011;3806;52.270;10.544;2023-10-19T01:36:47;21.15;;;12.68;;
7529;SDS011;3806;52.270;10.544;2023-10-19T01:39:15;15.82;;;10.38;;
7529;SDS011;3806;52.270;10.544;2023-10-19T01:41:43;16.00;;;10.35;;
7529;SDS011;3806;52.270;10.544;2023-10-19T01:44:10;19.38;;;11.85;;
7529;SDS011;3806;52.270;10.544;2023-10-19T01:46:38;18.77;;;10.85;;
7529;SDS011;3806;52.270;10.544;2023-10-19T01:49:05;17.08;;;10.77;;
7529;SDS011;3806;52.270;10.544;2023-10-19T01:51:33;18.58;;;11.13;;
7529;SDS011;3806;52.270;10.544;2023-10-19T01:54:08;23.27;;;11.30;;
7529;SDS011;3806;52.270;10.544;2023-10-19T01:56:34;19.83;;;11.50;;
7529;SDS011;3806;52.270;10.544;2023-10-19T01:59:01;19.05;;;10.25;;
7529;SDS011;3806;52.270;10.544;2023-10-19T02:01:30;16.55;;;10.32;;
7529;SDS011;3806;52.270;10.544;2023-10-19T02:04:00;19.25;;;10.07;;
7529;SDS011;3806;52.270;10.544;2023-10-19T02:06:29;18.00;;;10.27;;
7529;SDS011;3806;52.270;10.544;2023-10-19T02:09:01;16.25;;;10.00;;
7529;SDS011;3806;52.270;10.544;2023-10-19T02:11:59;17.63;;;9.18;;
7529;SDS011;3806;52.270;10.544;2023-10-19T02:14:27;18.23;;;9.98;;
7529;SDS011;3806;52.270;10.544;2023-10-19T02:16:56;17.80;;;10.80;;
7529;SDS011;3806;52.270;10.544;2023-10-19T02:19:25;18.25;;;10.73;;
7529;SDS011;3806;52.270;10.544;2023-10-19T02:21:53;20.33;;;10.77;;
7529;SDS011;3806;52.270;10.544;2023-10-19T02:24:22;22.02;;;12.77;;
7529;SDS011;3806;52.270;10.544;2023-10-19T02:26:49;18.98;;;11.50;;
7529;SDS011;3806;52.270;10.544;2023-10-19T02:29:19;18.73;;;10.30;;
7529;SDS011;3806;52.270;10.544;2023-10-19T02:31:46;22.58;;;11.38;;
7529;SDS011;3806;52.270;10.544;2023-10-19T02:34:13;18.27;;;11.38;;
7529;SDS011;3806;52.270;10.544;2023-10-19T02:36:43;18.08;;;10.50;;
7529;SDS011;3806;52.270;10.544;2023-10-19T02:39:10;18.83;;;10.18;;
7529;SDS011;3806;52.270;10.544;2023-10-19T02:41:38;13.85;;;9.77;;
7529;SDS011;3806;52.270;10.544;2023-10-19T02:44:08;14.50;;;9.20;;
7529;SDS011;3806;52.270;10.544;2023-10-19T02:46:47;16.30;;;10.60;;
7529;SDS011;3806;52.270;10.544;2023-10-19T02:49:16;15.98;;;10.40;;
7529;SDS011;3806;52.270;10.544;2023-10-19T02:51:45;16.52;;;10.07;;
7529;SDS011;3806;52.270;10.544;2023-10-19T02:54:12;18.17;;;10.95;;
7529;SDS011;3806;52.270;10.544;2023-10-19T02:56:45;17.83;;;10.15;;
7529;SDS011;3806;52.270;10.544;2023-10-19T02:59:14;20.13;;;10.68;;
7529;SDS011;3806;52.270;10.544;2023-10-19T03:01:41;16.13;;;9.50;;
7529;SDS011;3806;52.270;10.544;2023-10-19T03:04:09;17.88;;;9.60;;
7529;SDS011;3806;52.270;10.544;2023-10-19T03:06:37;19.90;;;10.63;;
7529;SDS011;3806;52.270;10.544;2023-10-19T03:09:05;16.25;;;10.75;;
7529;SDS011;3806;52.270;10.544;2023-10-19T03:11:47;19.20;;;10.23;;
7529;SDS011;3806;52.270;10.544;2023-10-19T03:14:17;16.75;;;10.07;;
7529;SDS011;3806;52.270;10.544;2023-10-19T03:16:43;18.42;;;9.65;;
7529;SDS011;3806;52.270;10.544;2023-10-19T03:19:10;16.38;;;10.25;;
7529;SDS011;3806;52.270;10.544;2023-10-19T03:21:36;16.55;;;10.60;;
7529;SDS011;3806;52.270;10.544;2023-10-19T03:24:14;17.58;;;11.25;;
7529;SDS011;3806;52.270;10.544;2023-10-19T03:26:51;17.25;;;11.38;;
7529;SDS011;3806;52.270;10.544;2023-10-19T03:29:19;16.40;;;10.70;;
7529;SDS011;3806;52.270;10.544;2023-10-19T03:31:47;20.02;;;10.73;;
7529;SDS011;3806;52.270;10.544;2023-10-19T03:34:13;15.73;;;10.63;;
7529;SDS011;3806;52.270;10.544;2023-10-19T03:36:41;18.77;;;11.25;;
7529;SDS011;3806;52.270;10.544;2023-10-19T03:39:07;19.65;;;11.35;;
7529;SDS011;3806;52.270;10.544;2023-10-19T03:41:40;18.38;;;11.02;;
7529;SDS011;3806;52.270;10.544;2023-10-19T03:44:09;15.82;;;9.82;;
7529;SDS011;3806;52.270;10.544;2023-10-19T03:46:49;18.92;;;11.05;;
7529;SDS011;3806;52.270;10.544;2023-10-19T03:49:21;18.52;;;10.55;;
7529;SDS011;3806;52.270;10.544;2023-10-19T03:51:47;18.35;;;11.48;;
7529;SDS011;3806;52.270;10.544;2023-10-19T03:54:45;19.80;;;12.50;;
7529;SDS011;3806;52.270;10.544;2023-10-19T03:57:12;18.13;;;10.98;;
7529;SDS011;3806;52.270;10.544;2023-10-19T03:59:47;18.73;;;11.00;;
7529;SDS011;3806;52.270;10.544;2023-10-19T04:02:23;18.35;;;11.68;;
7529;SDS011;3806;52.270;10.544;2023-10-19T04:04:49;16.52;;;11.00;;
7529;SDS011;3806;52.270;10.544;2023-10-19T04:07:17;18.73;;;11.07;;
7529;SDS011;3806;52.270;10.544;2023-10-19T04:09:46;23.45;;;12.82;;
7529;SDS011;3806;52.270;10.544;2023-10-19T04:12:35;19.35;;;11.85;;
7529;SDS011;3806;52.270;10.544;2023-10-19T04:15:02;20.45;;;12.80;;
7529;SDS011;3806;52.270;10.544;2023-10-19T04:17:41;21.45;;;12.13;;
7529;SDS011;3806;52.270;10.544;2023-10-19T04:20:10;19.88;;;11.85;;
7529;SDS011;3806;52.270;10.544;2023-10-19T04:22:53;21.02;;;11.63;;
7529;SDS011;3806;52.270;10.544;2023-10-19T04:25:19;26.05;;;12.85;;
7529;SDS011;3806;52.270;10.544;2023-10-19T04:27:45;20.40;;;12.05;;
7529;SDS011;3806;52.270;10.544;2023-10-19T04:30:12;21.27;;;11.73;;
7529;SDS011;3806;52.270;10.544;2023-10-19T04:32:43;17.38;;;11.43;;
7529;SDS011;3806;52.270;10.544;2023-10-19T04:35:10;17.80;;;11.25;;
7529;SDS011;3806;52.270;10.544;2023-10-19T04:37:35;23.55;;;12.48;;
7529;SDS011;3806;52.270;10.544;2023-10-19T04:40:01;21.42;;;12.25;;
7529;SDS011;3806;52.270;10.544;2023-10-19T04:42:27;18.52;;;11.45;;
7529;SDS011;3806;52.270;10.544;2023-10-19T04:44:56;18.58;;;10.48;;
7529;SDS011;3806;52.270;10.544;2023-10-19T04:47:21;16.50;;;11.45;;
7529;SDS011;3806;52.270;10.544;2023-10-19T04:49:48;17.30;;;11.38;;
7529;SDS011;3806;52.270;10.544;2023-10-19T04:52:13;16.92;;;11.15;;
7529;SDS011;3806;52.270;10.544;2023-10-19T04:54:39;18.38;;;10.93;;
7529;SDS011;3806;52.270;10.544;2023-10-19T04:57:04;18.00;;;11.43;;
7529;SDS011;3806;52.270;10.544;2023-10-19T04:59:30;20.45;;;11.32;;
7529;SDS011;3806;52.270;10.544;2023-10-19T05:01:59;18.83;;;11.25;;
7529;SDS011;3806;52.270;10.544;2023-10-19T05:04:27;19.02;;;11.95;;
7529;SDS011;3806;52.270;10.544;2023-10-19T05:06:53;22.77;;;12.50;;
7529;SDS011;3806;52.270;10.544;2023-10-19T05:09:19;17.67;;;11.48;;
7529;SDS011;3806;52.270;10.544;2023-10-19T05:11:44;16.45;;;11.23;;
7529;SDS011;3806;52.270;10.544;2023-10-19T05:14:11;20.77;;;12.07;;
7529;SDS011;3806;52.270;10.544;2023-10-19T05:16:38;16.27;;;10.38;;
7529;SDS011;3806;52.270;10.544;2023-10-19T05:19:04;19.42;;;11.32;;
7529;SDS011;3806;52.270;10.544;2023-10-19T05:21:30;16.33;;;10.18;;
7529;SDS011;3806;52.270;10.544;2023-10-19T05:23:55;16.17;;;10.60;;
7529;SDS011;3806;52.270;10.544;2023-10-19T05:26:21;17.88;;;10.55;;
7529;SDS011;3806;52.270;10.544;2023-10-19T05:28:47;15.13;;;10.27;;
7529;SDS011;3806;52.270;10.544;2023-10-19T05:31:12;15.82;;;9.40;;
7529;SDS011;3806;52.270;10.544;2023-10-19T05:33:38;20.75;;;11.38;;
7529;SDS011;3806;52.270;10.544;2023-10-19T05:36:04;15.70;;;9.98;;
7529;SDS011;3806;52.270;10.544;2023-10-19T05:38:30;20.25;;;11.57;;
7529;SDS011;3806;52.270;10.544;2023-10-19T05:40:57;21.00;;;11.55;;
7529;SDS011;3806;52.270;10.544;2023-10-19T05:43:24;22.45;;;11.05;;
7529;SDS011;3806;52.270;10.544;2023-10-19T05:45:50;17.67;;;10.05;;
7529;SDS011;3806;52.270;10.544;2023-10-19T05:48:16;22.02;;;11.70;;
7529;SDS011;3806;52.270;10.544;2023-10-19T05:50:42;17.13;;;10.35;;
7529;SDS011;3806;52.270;10.544;2023-10-19T05:53:07;19.02;;;10.93;;
7529;SDS011;3806;52.270;10.544;2023-10-19T05:55:33;17.05;;;9.70;;
7529;SDS011;3806;52.270;10.544;2023-10-19T05:58:00;15.70;;;10.13;;
7529;SDS011;3806;52.270;10.544;2023-10-19T06:00:29;15.65;;;9.60;;
7529;SDS011;3806;52.270;10.544;2023-10-19T06:02:55;15.82;;;10.48;;
7529;SDS011;3806;52.270;10.544;2023-10-19T06:05:21;17.00;;;10.15;;
7529;SDS011;3806;52.270;10.544;2023-10-19T06:07:47;16.10;;;10.30;;
7529;SDS011;3806;52.270;10.544;2023-10-19T06:10:15;18.98;;;10.48;;
7529;SDS011;3806;52.270;10.544;2023-10-19T06:12:43;14.05;;;9.30;;
7529;SDS011;3806;52.270;10.544;2023-10-19T06:15:09;14.18;;;9.43;;
7529;SDS011;3806;52.270;10.544;2023-10-19T06:17:39;15.35;;;8.63;;
7529;SDS011;3806;52.270;10.544;2023-10-19T06:20:09;12.68;;;8.10;;
7529;SDS011;3806;52.270;10.544;2023-10-19T06:22:49;17.15;;;9.75;;
7529;SDS011;3806;52.270;10.544;2023-10-19T06:25:20;17.20;;;8.82;;
7529;SDS011;3806;52.270;10.544;2023-10-19T06:27:46;12.70;;;8.30;;
7529;SDS011;3806;52.270;10.544;2023-10-19T06:30:13;13.57;;;8.52;;
7529;SDS011;3806;52.270;10.544;2023-10-19T06:32:44;13.20;;;8.45;;
7529;SDS011;3806;52.270;10.544;2023-10-19T06:35:12;16.10;;;8.77;;
7529;SDS011;3806;52.270;10.544;2023-10-19T06:37:38;13.82;;;7.55;;
7529;SDS011;3806;52.270;10.544;2023-10-19T06:40:04;13.50;;;8.23;;
7529;SDS011;3806;52.270;10.544;2023-10-19T06:42:31;13.10;;;8.45;;
7529;SDS011;3806;52.270;10.544;2023-10-19T06:44:57;13.35;;;7.85;;
7529;SDS011;3806;52.270;10.544;2023-10-19T06:47:22;12.77;;;9.07;;
7529;SDS011;3806;52.270;10.544;2023-10-19T06:49:48;14.60;;;8.57;;
7529;SDS011;3806;52.270;10.544;2023-10-19T06:52:15;13.27;;;7.78;;
7529;SDS011;3806;52.270;10.544;2023-10-19T06:54:41;9.38;;;6.93;;
7529;SDS011;3806;52.270;10.544;2023-10-19T06:57:06;11.25;;;8.30;;
7529;SDS011;3806;52.270;10.544;2023-10-19T06:59:33;10.80;;;7.47;;
7529;SDS011;3806;52.270;10.544;2023-10-19T07:02:01;12.38;;;7.30;;
7529;SDS011;3806;52.270;10.544;2023-10-19T07:04:28;10.98;;;6.95;;
7529;SDS011;3806;52.270;10.544;2023-10-19T07:06:54;11.25;;;7.15;;
7529;SDS011;3806;52.270;10.544;2023-10-19T07:09:20;9.32;;;7.03;;
7529;SDS011;3806;52.270;10.544;2023-10-19T07:11:46;11.85;;;7.25;;
7529;SDS011;3806;52.270;10.544;2023-10-19T07:14:12;9.25;;;6.05;;
7529;SDS011;3806;52.270;10.544;2023-10-19T07:16:39;7.97;;;5.47;;
7529;SDS011;3806;52.270;10.544;2023-10-19T07:19:05;9.60;;;6.40;;
7529;SDS011;3806;52.270;10.544;2023-10-19T07:21:31;10.73;;;5.75;;
7529;SDS011;3806;52.270;10.544;2023-10-19T07:24:00;8.73;;;6.20;;
7529;SDS011;3806;52.270;10.544;2023-10-19T07:26:30;8.32;;;5.57;;
7529;SDS011;3806;52.270;10.544;2023-10-19T07:28:58;8.82;;;6.57;;
7529;SDS011;3806;52.270;10.544;2023-10-19T07:31:27;10.02;;;5.63;;
7529;SDS011;3806;52.270;10.544;2023-10-19T07:33:52;7.95;;;5.65;;
7529;SDS011;3806;52.270;10.544;2023-10-19T07:36:22;7.75;;;5.70;;
7529;SDS011;3806;52.270;10.544;2023-10-19T07:38:49;12.48;;;5.53;;
7529;SDS011;3806;52.270;10.544;2023-10-19T07:41:16;7.25;;;4.43;;
7529;SDS011;3806;52.270;10.544;2023-10-19T07:43:42;7.22;;;5.30;;
7529;SDS011;3806;52.270;10.544;2023-10-19T07:46:09;7.70;;;4.63;;
7529;SDS011;3806;52.270;10.544;2023-10-19T07:48:36;6.05;;;4.78;;
7529;SDS011;3806;52.270;10.544;2023-10-19T07:51:03;6.50;;;5.45;;
7529;SDS011;3806;52.270;10.544;2023-10-19T07:53:28;6.18;;;4.50;;
7529;SDS011;3806;52.270;10.544;2023-10-19T07:55:55;6.53;;;4.57;;
7529;SDS011;3806;52.270;10.544;2023-10-19T07:58:22;6.50;;;4.45;;
7529;SDS011;3806;52.270;10.544;2023-10-19T08:00:47;9.63;;;4.90;;
7529;SDS011;3806;52.270;10.544;2023-10-19T08:03:13;6.70;;;4.35;;
7529;SDS011;3806;52.270;10.544;2023-10-19T08:05:41;5.13;;;4.20;;
7529;SDS011;3806;52.270;10.544;2023-10-19T08:08:06;5.00;;;4.40;;
7529;SDS011;3806;52.270;10.544;2023-10-19T08:10:32;6.55;;;4.72;;
7529;SDS011;3806;52.270;10.544;2023-10-19T08:12:59;8.25;;;4.82;;
7529;SDS011;3806;52.270;10.544;2023-10-19T08:15:25;5.57;;;4.57;;
7529;SDS011;3806;52.270;10.544;2023-10-19T08:17:51;7.03;;;4.53;;
7529;SDS011;3806;52.270;10.544;2023-10-19T08:20:18;5.93;;;4.50;;
7529;SDS011;3806;52.270;10.544;2023-10-19T08:22:57;6.40;;;4.45;;
7529;SDS011;3806;52.270;10.544;2023-10-19T08:25:24;6.75;;;4.65;;
7529;SDS011;3806;52.270;10.544;2023-10-19T08:27:52;7.68;;;4.40;;
7529;SDS011;3806;52.270;10.544;2023-10-19T08:30:21;4.97;;;3.78;;
7529;SDS011;3806;52.270;10.544;2023-10-19T08:32:47;5.97;;;4.32;;
7529;SDS011;3806;52.270;10.544;2023-10-19T08:35:17;8.32;;;4.47;;
7529;SDS011;3806;52.270;10.544;2023-10-19T08:37:46;5.65;;;4.57;;
7529;SDS011;3806;52.270;10.544;2023-10-19T08:40:12;7.30;;;4.38;;
7529;SDS011;3806;52.270;10.544;2023-10-19T08:42:41;7.85;;;4.40;;
7529;SDS011;3806;52.270;10.544;2023-10-19T08:45:08;5.38;;;3.72;;
7529;SDS011;3806;52.270;10.544;2023-10-19T08:47:37;5.85;;;3.78;;
7529;SDS011;3806;52.270;10.544;2023-10-19T08:50:12;5.20;;;3.78;;
7529;SDS011;3806;52.270;10.544;2023-10-19T08:52:39;6.47;;;4.00;;
7529;SDS011;3806;52.270;10.544;2023-10-19T08:55:08;5.55;;;4.00;;
7529;SDS011;3806;52.270;10.544;2023-10-19T08:57:35;4.80;;;3.40;;
7529;SDS011;3806;52.270;10.544;2023-10-19T09:00:01;5.35;;;3.55;;
7529;SDS011;3806;52.270;10.544;2023-10-19T09:02:31;3.42;;;2.80;;
7529;SDS011;3806;52.270;10.544;2023-10-19T09:04:57;4.70;;;2.95;;
7529;SDS011;3806;52.270;10.544;2023-10-19T09:07:24;4.03;;;3.00;;
7529;SDS011;3806;52.270;10.544;2023-10-19T09:09:55;6.15;;;3.28;;
7529;SDS011;3806;52.270;10.544;2023-10-19T09:12:22;3.72;;;3.35;;
7529;SDS011;3806;52.270;10.544;2023-10-19T09:14:48;4.13;;;3.00;;
7529;SDS011;3806;52.270;10.544;2023-10-19T09:17:15;4.03;;;2.88;;
7529;SDS011;3806;52.270;10.544;2023-10-19T09:19:43;4.57;;;2.92;;
7529;SDS011;3806;52.270;10.544;2023-10-19T09:22:12;4.47;;;2.95;;
7529;SDS011;3806;52.270;10.544;2023-10-19T09:24:47;4.95;;;3.03;;
7529;SDS011;3806;52.270;10.544;2023-10-19T09:27:16;5.38;;;3.35;;
7529;SDS011;3806;52.270;10.544;2023-10-19T09:29:42;4.25;;;3.03;;
7529;SDS011;3806;52.270;10.544;2023-10-19T09:32:08;3.53;;;2.78;;
7529;SDS011;3806;52.270;10.544;2023-10-19T09:34:34;4.30;;;2.70;;
7529;SDS011;3806;52.270;10.544;2023-10-19T09:37:01;4.28;;;3.00;;
7529;SDS011;3806;52.270;10.544;2023-10-19T09:39:28;3.20;;;2.35;;
7529;SDS011;3806;52.270;10.544;2023-10-19T09:42:01;4.07;;;2.95;;
7529;SDS011;3806;52.270;10.544;2023-10-19T09:44:41;4.05;;;2.78;;
7529;SDS011;3806;52.270;10.544;2023-10-19T09:47:09;3.38;;;2.42;;
7529;SDS011;3806;52.270;10.544;2023-10-19T09:52:10;3.50;;;2.70;;
7529;SDS011;3806;52.270;10.544;2023-10-19T09:54:45;3.72;;;2.47;;
7529;SDS011;3806;52.270;10.544;2023-10-19T09:57:32;4.53;;;3.20;;
7529;SDS011;3806;52.270;10.544;2023-10-19T10:00:09;4.03;;;2.95;;
7529;SDS011;3806;52.270;10.544;2023-10-19T10:02:44;4.45;;;3.38;;
7529;SDS011;3806;52.270;10.544;2023-10-19T10:10:42;5.63;;;3.13;;
7529;SDS011;3806;52.270;10.544;2023-10-19T10:16:00;4.95;;;3.50;;
7529;SDS011;3806;52.270;10.544;2023-10-19T10:18:29;4.90;;;3.20;;
7529;SDS011;3806;52.270;10.544;2023-10-19T10:21:06;4.90;;;3.90;;
7529;SDS011;3806;52.270;10.544;2023-10-19T10:23:35;5.30;;;3.70;;
7529;SDS011;3806;52.270;10.544;2023-10-19T10:26:07;5.25;;;3.70;;
7529;SDS011;3806;52.270;10.544;2023-10-19T10:28:33;4.40;;;3.33;;
7529;SDS011;3806;52.270;10.544;2023-10-19T10:31:20;7.88;;;4.30;;
7529;SDS011;3806;52.270;10.544;2023-10-19T10:33:53;6.20;;;4.07;;
7529;SDS011;3806;52.270;10.544;2023-10-19T10:38:50;5.28;;;3.38;;
7529;SDS011;3806;52.270;10.544;2023-10-19T10:41:22;5.45;;;3.88;;
7529;SDS011;3806;52.270;10.544;2023-10-19T10:43:57;6.35;;;4.55;;
7529;SDS011;3806;52.270;10.544;2023-10-19T10:46:24;5.32;;;4.10;;
7529;SDS011;3806;52.270;10.544;2023-10-19T10:48:54;6.30;;;4.22;;
7529;SDS011;3806;52.270;10.544;2023-10-19T10:51:24;6.40;;;4.10;;
7529;SDS011;3806;52.270;10.544;2023-10-19T10:53:54;6.57;;;4.18;;
7529;SDS011;3806;52.270;10.544;2023-10-19T10:56:23;6.95;;;5.00;;
7529;SDS011;3806;52.270;10.544;2023-10-19T10:58:49;7.28;;;4.78;;
7529;SDS011;3806;52.270;10.544;2023-10-19T11:01:15;6.00;;;4.60;;
7529;SDS011;3806;52.270;10.544;2023-10-19T11:04:04;7.28;;;4.97;;
7529;SDS011;3806;52.270;10.544;2023-10-19T11:06:30;6.15;;;4.65;;
7529;SDS011;3806;52.270;10.544;2023-10-19T11:08:56;7.68;;;4.10;;
7529;SDS011;3806;52.270;10.544;2023-10-19T11:11:22;8.05;;;5.22;;
7529;SDS011;3806;52.270;10.544;2023-10-19T11:13:47;8.40;;;5.15;;
7529;SDS011;3806;52.270;10.544;2023-10-19T11:16:21;7.40;;;4.43;;
7529;SDS011;3806;52.270;10.544;2023-10-19T11:18:48;6.95;;;4.88;;
7529;SDS011;3806;52.270;10.544;2023-10-19T11:21:15;6.93;;;5.00;;
7529;SDS011;3806;52.270;10.544;2023-10-19T11:23:44;7.82;;;5.30;;
7529;SDS011;3806;52.270;10.544;2023-10-19T11:26:11;7.47;;;4.82;;
7529;SDS011;3806;52.270;10.544;2023-10-19T11:28:38;6.43;;;4.63;;
7529;SDS011;3806;52.270;10.544;2023-10-19T11:31:18;7.65;;;5.43;;
7529;SDS011;3806;52.270;10.544;2023-10-19T11:33:47;8.07;;;4.82;;
7529;SDS011;3806;52.270;10.544;2023-10-19T11:36:19;6.25;;;4.57;;
7529;SDS011;3806;52.270;10.544;2023-10-19T11:38:46;7.32;;;4.93;;
7529;SDS011;3806;52.270;10.544;2023-10-19T11:41:13;7.50;;;5.28;;
7529;SDS011;3806;52.270;10.544;2023-10-19T11:43:40;6.55;;;5.43;;
7529;SDS011;3806;52.270;10.544;2023-10-19T11:46:07;8.88;;;5.82;;
7529;SDS011;3806;52.270;10.544;2023-10-19T11:48:35;8.45;;;5.57;;
7529;SDS011;3806;52.270;10.544;2023-10-19T11:51:01;8.00;;;5.15;;
7529;SDS011;3806;52.270;10.544;2023-10-19T11:53:32;9.15;;;5.55;;
7529;SDS011;3806;52.270;10.544;2023-10-19T11:56:05;10.15;;;6.72;;
7529;SDS011;3806;52.270;10.544;2023-10-19T11:58:32;10.98;;;6.97;;
7529;SDS011;3806;52.270;10.544;2023-10-19T12:00:59;9.05;;;6.43;;
7529;SDS011;3806;52.270;10.544;2023-10-19T12:03:26;11.10;;;6.35;;
7529;SDS011;3806;52.270;10.544;2023-10-19T12:05:52;9.20;;;6.22;;
7529;SDS011;3806;52.270;10.544;2023-10-19T12:08:21;10.75;;;7.15;;
7529;SDS011;3806;52.270;10.544;2023-10-19T12:10:47;12.90;;;7.05;;
7529;SDS011;3806;52.270;10.544;2023-10-19T12:13:13;11.68;;;7.32;;
7529;SDS011;3806;52.270;10.544;2023-10-19T12:15:38;12.63;;;7.45;;
7529;SDS011;3806;52.270;10.544;2023-10-19T12:18:04;13.18;;;7.43;;
7529;SDS011;3806;52.270;10.544;2023-10-19T12:20:30;13.35;;;7.38;;
7529;SDS011;3806;52.270;10.544;2023-10-19T12:22:56;12.93;;;8.13;;
7529;SDS011;3806;52.270;10.544;2023-10-19T12:25:23;13.95;;;8.27;;
7529;SDS011;3806;52.270;10.544;2023-10-19T12:27:54;13.73;;;8.10;;
7529;SDS011;3806;52.270;10.544;2023-10-19T12:30:21;12.63;;;8.30;;
7529;SDS011;3806;52.270;10.544;2023-10-19T12:32:50;15.27;;;8.55;;
7529;SDS011;3806;52.270;10.544;2023-10-19T12:35:16;12.65;;;7.78;;
7529;SDS011;3806;52.270;10.544;2023-10-19T12:37:45;12.40;;;8.30;;
7529;SDS011;3806;52.270;10.544;2023-10-19T12:40:17;12.30;;;8.02;;
7529;SDS011;3806;52.270;10.544;2023-10-19T12:42:51;13.85;;;8.90;;
7529;SDS011;3806;52.270;10.544;2023-10-19T12:45:24;14.00;;;8.77;;
7529;SDS011;3806;52.270;10.544;2023-10-19T12:47:50;16.00;;;9.93;;
7529;SDS011;3806;52.270;10.544;2023-10-19T12:50:17;18.30;;;9.88;;
7529;SDS011;3806;52.270;10.544;2023-10-19T12:52:47;16.25;;;9.15;;
7529;SDS011;3806;52.270;10.544;2023-10-19T12:55:13;13.90;;;9.25;;
7529;SDS011;3806;52.270;10.544;2023-10-19T12:57:39;17.52;;;9.77;;
7529;SDS011;3806;52.270;10.544;2023-10-19T13:00:06;15.73;;;9.00;;
7529;SDS011;3806;52.270;10.544;2023-10-19T13:02:53;15.10;;;9.13;;
7529;SDS011;3806;52.270;10.544;2023-10-19T13:05:28;14.50;;;8.30;;
7529;SDS011;3806;52.270;10.544;2023-10-19T13:08:00;17.95;;;10.15;;
7529;SDS011;3806;52.270;10.544;2023-10-19T13:10:28;15.68;;;9.10;;
7529;SDS011;3806;52.270;10.544;2023-10-19T13:13:02;15.15;;;8.70;;
7529;SDS011;3806;52.270;10.544;2023-10-19T13:15:32;15.10;;;8.77;;
7529;SDS011;3806;52.270;10.544;2023-10-19T13:18:00;14.63;;;9.70;;
7529;SDS011;3806;52.270;10.544;2023-10-19T13:20:29;15.80;;;9.18;;
7529;SDS011;3806;52.270;10.544;2023-10-19T13:23:05;17.80;;;9.53;;
7529;SDS011;3806;52.270;10.544;2023-10-19T13:25:36;18.50;;;9.82;;
7529;SDS011;3806;52.270;10.544;2023-10-19T13:28:32;15.07;;;8.68;;
7529;SDS011;3806;52.270;10.544;2023-10-19T13:30:58;17.77;;;9.80;;
7529;SDS011;3806;52.270;10.544;2023-10-19T13:33:23;15.05;;;9.30;;
7529;SDS011;3806;52.270;10.544;2023-10-19T13:35:49;17.70;;;10.65;;
7529;SDS011;3806;52.270;10.544;2023-10-19T13:38:16;15.27;;;9.82;;
7529;SDS011;3806;52.270;10.544;2023-10-19T13:40:44;18.48;;;10.75;;
7529;SDS011;3806;52.270;10.544;2023-10-19T13:43:11;17.98;;;9.80;;
7529;SDS011;3806;52.270;10.544;2023-10-19T13:45:41;18.33;;;10.02;;
7529;SDS011;3806;52.270;10.544;2023-10-19T13:48:10;14.55;;;8.98;;
7529;SDS011;3806;52.270;10.544;2023-10-19T13:50:41;15.85;;;9.80;;
7529;SDS011;3806;52.270;10.544;2023-10-19T13:53:10;17.10;;;9.93;;
7529;SDS011;3806;52.270;10.544;2023-10-19T13:55:36;16.58;;;9.82;;
7529;SDS011;3806;52.270;10.544;2023-10-19T13:58:02;17.45;;;11.32;;
7529;SDS011;3806;52.270;10.544;2023-10-19T14:00:27;19.27;;;10.32;;
7529;SDS011;3806;52.270;10.544;2023-10-19T14:03:00;18.08;;;10.40;;
7529;SDS011;3806;52.270;10.544;2023-10-19T14:05:29;20.50;;;10.07;;
7529;SDS011;3806;52.270;10.544;2023-10-19T14:08:01;21.27;;;10.32;;
7529;SDS011;3806;52.270;10.544;2023-10-19T14:10:28;19.58;;;10.07;;
7529;SDS011;3806;52.270;10.544;2023-10-19T14:12:55;20.17;;;10.40;;
7529;SDS011;3806;52.270;10.544;2023-10-19T14:15:21;17.40;;;9.48;;
7529;SDS011;3806;52.270;10.544;2023-10-19T14:17:48;20.05;;;9.88;;
7529;SDS011;3806;52.270;10.544;2023-10-19T14:20:14;19.52;;;11.30;;
7529;SDS011;3806;52.270;10.544;2023-10-19T14:22:45;21.23;;;11.48;;
7529;SDS011;3806;52.270;10.544;2023-10-19T14:25:13;20.40;;;11.82;;
7529;SDS011;3806;52.270;10.544;2023-10-19T14:27:40;22.55;;;12.40;;
7529;SDS011;3806;52.270;10.544;2023-10-19T14:30:09;20.15;;;11.52;;
7529;SDS011;3806;52.270;10.544;2023-10-19T14:32:40;20.70;;;11.38;;
7529;SDS011;3806;52.270;10.544;2023-10-19T14:35:12;21.55;;;11.93;;
7529;SDS011;3806;52.270;10.544;2023-10-19T14:37:40;21.00;;;11.35;;
7529;SDS011;3806;52.270;10.544;2023-10-19T14:42:54;22.73;;;11.98;;
7529;SDS011;3806;52.270;10.544;2023-10-19T14:45:21;17.02;;;10.55;;
7529;SDS011;3806;52.270;10.544;2023-10-19T14:47:53;21.83;;;12.57;;
7529;SDS011;3806;52.270;10.544;2023-10-19T14:50:21;19.83;;;11.52;;
7529;SDS011;3806;52.270;10.544;2023-10-19T14:52:48;23.58;;;13.95;;
7529;SDS011;3806;52.270;10.544;2023-10-19T14:55:15;22.67;;;12.27;;
7529;SDS011;3806;52.270;10.544;2023-10-19T14:57:41;21.60;;;12.15;;
7529;SDS011;3806;52.270;10.544;2023-10-19T15:00:09;23.58;;;13.10;;
7529;SDS011;3806;52.270;10.544;2023-10-19T15:02:43;26.13;;;13.88;;
7529;SDS011;3806;52.270;10.544;2023-10-19T15:05:13;23.63;;;11.90;;
7529;SDS011;3806;52.270;10.544;2023-10-19T15:07:41;26.10;;;13.23;;
7529;SDS011;3806;52.270;10.544;2023-10-19T15:10:07;29.02;;;14.88;;
7529;SDS011;3806;52.270;10.544;2023-10-19T15:12:37;22.70;;;12.38;;
7529;SDS011;3806;52.270;10.544;2023-10-19T15:15:06;34.00;;;14.70;;
7529;SDS011;3806;52.270;10.544;2023-10-19T15:17:34;27.75;;;13.88;;